Time;durP1;ratioP1;P1;durP2;ratioP2;P2;SDS_P1;SDS_P2;PMS_P1;PMS_P2;Temp;Humidity;BMP_temperature;BMP_pressure;BME280_temperature;BME280_humidity;BME280_pressure;Samples;Min_cycle;Max_cycle;Signal;HPM_P1;HPM_P2
2023/07/20 00:00:58;;;;;;;8.13;5.60;;;16.20;99.90;;;;;;4407875;28;661672;-65
2023/07/20 00:03:48;;;;;;;9.67;5.47;;;16.20;99.90;;;;;;4385636;28;659280;-65
2023/07/20 00:06:35;;;;;;;16.73;5.90;;;16.20;99.90;;;;;;4389140;28;659395;-65
2023/07/20 00:09:22;;;;;;;16.70;5.83;;;16.20;99.90;;;;;;4410253;28;660894;-65
2023/07/20 00:12:10;;;;;;;9.37;5.50;;;16.10;99.90;;;;;;4408079;28;660106;-64
2023/07/20 00:14:57;;;;;;;12.50;6.13;;;16.10;99.90;;;;;;4385851;28;659420;-64
2023/07/20 00:17:44;;;;;;;11.83;5.90;;;16.00;99.90;;;;;;4408344;28;659291;-65
2023/07/20 00:20:33;;;;;;;12.23;6.03;;;16.00;99.90;;;;;;4381508;28;660379;-64
2023/07/20 00:23:22;;;;;;;11.70;5.70;;;15.90;99.90;;;;;;4381889;28;660072;-65
2023/07/20 00:26:09;;;;;;;12.50;5.23;;;15.90;99.90;;;;;;4402185;28;659649;-65
2023/07/20 00:28:57;;;;;;;13.07;5.97;;;15.90;99.90;;;;;;4388260;28;659668;-64
2023/07/20 00:31:44;;;;;;;11.37;5.60;;;15.80;99.90;;;;;;4404767;28;659811;-64
2023/07/20 00:34:31;;;;;;;11.27;5.47;;;15.80;99.90;;;;;;4387794;28;659760;-65
2023/07/20 00:37:20;;;;;;;7.83;5.07;;;15.80;99.90;;;;;;4406318;28;660435;-65
2023/07/20 00:40:08;;;;;;;10.73;5.40;;;15.80;99.90;;;;;;4385543;28;659515;-65
2023/07/20 00:42:55;;;;;;;10.30;5.57;;;15.80;99.90;;;;;;4393539;28;659997;-65
2023/07/20 00:45:42;;;;;;;9.37;5.57;;;15.70;99.90;;;;;;4406902;28;660769;-64
2023/07/20 00:48:30;;;;;;;13.27;6.80;;;15.70;99.90;;;;;;4408541;28;659380;-65
2023/07/20 00:51:17;;;;;;;12.43;7.40;;;16.00;99.90;;;;;;4407033;28;661580;-65
2023/07/20 00:54:06;;;;;;;9.43;6.30;;;16.30;99.90;;;;;;4410517;28;659658;-65
2023/07/20 00:56:53;;;;;;;12.40;6.80;;;16.50;99.90;;;;;;4380440;28;659528;-65
2023/07/20 00:59:41;;;;;;;17.10;7.10;;;16.60;99.90;;;;;;4391017;28;660465;-65
2023/07/20 01:02:28;;;;;;;13.73;7.70;;;16.80;99.90;;;;;;4405069;28;660825;-65
2023/07/20 01:05:16;;;;;;;12.10;7.00;;;17.00;99.90;;;;;;4398233;28;659647;-65
2023/07/20 01:08:07;;;;;;;14.30;6.20;;;17.00;99.90;;;;;;4409813;28;659853;-65
2023/07/20 01:10:58;;;;;;;15.90;6.70;;;17.10;99.90;;;;;;4375529;28;659582;-65
2023/07/20 01:13:45;;;;;;;11.20;6.63;;;17.40;99.90;;;;;;4356672;28;659851;-65
2023/07/20 01:16:34;;;;;;;13.63;6.07;;;17.40;99.90;;;;;;4409162;28;660949;-65
2023/07/20 01:19:21;;;;;;;11.63;5.57;;;17.50;99.90;;;;;;4391222;28;659488;-65
2023/07/20 01:22:13;;;;;;;13.50;5.30;;;17.70;99.90;;;;;;4405583;28;660420;-64
2023/07/20 01:25:13;;;;;;;10.47;5.27;;;17.70;99.90;;;;;;4384003;28;659619;-65
2023/07/20 01:28:27;;;;;;;10.67;4.20;;;17.80;99.90;;;;;;4376189;28;660133;-65
2023/07/20 01:31:24;;;;;;;9.57;4.30;;;17.90;99.90;;;;;;4402062;28;660467;-66
2023/07/20 01:34:12;;;;;;;10.30;4.43;;;17.90;99.90;;;;;;4387617;28;658996;-65
2023/07/20 01:36:59;;;;;;;8.93;4.37;;;18.00;99.90;;;;;;4404790;28;659900;-64
2023/07/20 01:39:47;;;;;;;11.13;4.13;;;18.00;99.90;;;;;;4389046;28;658788;-65
2023/07/20 01:42:34;;;;;;;5.57;3.40;;;18.00;99.90;;;;;;4406784;28;659662;-65
2023/07/20 01:45:21;;;;;;;8.10;3.60;;;18.00;99.90;;;;;;4393092;28;658893;-65
2023/07/20 01:48:10;;;;;;;9.90;3.70;;;17.80;99.90;;;;;;4405240;28;659884;-65
2023/07/20 01:50:57;;;;;;;5.73;3.50;;;17.80;99.90;;;;;;4380575;28;659668;-65
2023/07/20 01:53:44;;;;;;;13.73;3.37;;;17.80;99.90;;;;;;4410781;28;658421;-65
2023/07/20 01:56:31;;;;;;;7.70;3.10;;;17.60;99.90;;;;;;4388900;28;659709;-65
2023/07/20 01:59:18;;;;;;;5.43;3.40;;;17.60;99.90;;;;;;4410535;28;658314;-65
2023/07/20 02:02:06;;;;;;;6.80;3.57;;;17.60;99.90;;;;;;4379753;28;659037;-66
2023/07/20 02:04:54;;;;;;;7.97;3.80;;;17.50;99.90;;;;;;4409300;28;659911;-65
2023/07/20 02:07:42;;;;;;;6.00;3.47;;;17.40;99.90;;;;;;4390683;28;660033;-65
2023/07/20 02:10:29;;;;;;;7.00;3.53;;;17.30;99.90;;;;;;4401292;28;658039;-65
2023/07/20 02:13:16;;;;;;;10.17;4.10;;;17.20;99.90;;;;;;4391662;28;658351;-65
2023/07/20 02:16:04;;;;;;;9.73;3.70;;;16.80;99.90;;;;;;4407730;28;660300;-65
2023/07/20 02:18:51;;;;;;;7.70;4.07;;;16.70;99.90;;;;;;4390284;28;658504;-66
2023/07/20 02:21:39;;;;;;;12.57;4.10;;;16.70;99.90;;;;;;4405405;28;659786;-65
2023/07/20 02:24:27;;;;;;;7.50;4.07;;;16.70;99.90;;;;;;4386228;28;661109;-65
2023/07/20 02:27:14;;;;;;;7.07;3.30;;;16.70;99.90;;;;;;4407693;28;658507;-65
2023/07/20 02:30:01;;;;;;;8.90;4.03;;;16.70;99.90;;;;;;4386624;28;658603;-65
2023/07/20 02:32:48;;;;;;;7.40;3.83;;;16.70;99.90;;;;;;4410600;28;659361;-66
2023/07/20 02:35:36;;;;;;;9.53;3.90;;;16.80;99.90;;;;;;4390700;28;659152;-65
2023/07/20 02:38:24;;;;;;;11.80;3.90;;;16.70;99.90;;;;;;4406081;28;659285;-65
2023/07/20 02:41:11;;;;;;;6.23;3.80;;;16.70;99.90;;;;;;4380994;28;660813;-65
2023/07/20 02:43:59;;;;;;;6.43;3.40;;;16.70;99.90;;;;;;4407273;28;658205;-65
2023/07/20 02:46:46;;;;;;;9.07;3.77;;;16.70;99.90;;;;;;4388045;28;659154;-65
2023/07/20 02:49:33;;;;;;;6.13;3.50;;;16.60;99.90;;;;;;4407747;28;659560;-65
2023/07/20 02:52:20;;;;;;;7.10;3.87;;;16.60;99.90;;;;;;4390264;28;658708;-65
2023/07/20 02:55:10;;;;;;;8.10;3.57;;;16.50;99.90;;;;;;4403852;28;659488;-65
2023/07/20 02:57:57;;;;;;;7.83;4.27;;;16.50;99.90;;;;;;4390063;28;658547;-65
2023/07/20 03:00:44;;;;;;;7.73;4.03;;;16.50;99.90;;;;;;4405679;28;658517;-65
2023/07/20 03:03:31;;;;;;;9.30;4.20;;;16.60;99.90;;;;;;4386084;28;658323;-65
2023/07/20 03:06:19;;;;;;;11.27;3.70;;;16.70;99.90;;;;;;4411498;28;658439;-65
2023/07/20 03:09:06;;;;;;;9.33;3.60;;;16.60;99.90;;;;;;4384550;28;659426;-64
2023/07/20 03:11:55;;;;;;;9.63;3.57;;;16.60;99.90;;;;;;4406037;28;658962;-65
2023/07/20 03:14:42;;;;;;;6.03;3.50;;;16.50;99.90;;;;;;4386199;28;660262;-65
2023/07/20 03:17:29;;;;;;;9.93;4.07;;;16.50;99.90;;;;;;4400024;28;658608;-64
2023/07/20 03:20:16;;;;;;;20.17;4.40;;;16.40;99.90;;;;;;4388943;28;658360;-65
2023/07/20 03:23:04;;;;;;;7.90;3.73;;;16.30;99.90;;;;;;4407385;28;659989;-64
2023/07/20 03:25:54;;;;;;;7.27;4.30;;;16.20;99.90;;;;;;4388752;28;658433;-65
2023/07/20 03:28:43;;;;;;;10.73;3.90;;;16.00;99.90;;;;;;4381548;28;660625;-65
2023/07/20 03:31:31;;;;;;;8.90;4.17;;;16.10;99.90;;;;;;4387132;28;660060;-65
2023/07/20 03:34:18;;;;;;;9.00;3.80;;;16.10;99.90;;;;;;4401766;28;659041;-64
2023/07/20 03:37:06;;;;;;;9.52;4.13;;;16.00;99.90;;;;;;4395242;28;660256;-65
2023/07/20 03:39:53;;;;;;;8.73;4.30;;;16.00;99.90;;;;;;4407469;28;659581;-65
2023/07/20 03:42:41;;;;;;;10.30;4.73;;;15.90;99.90;;;;;;4389888;28;658799;-65
2023/07/20 03:45:30;;;;;;;11.50;4.70;;;15.90;99.90;;;;;;4403491;28;659895;-64
2023/07/20 03:48:17;;;;;;;8.40;5.03;;;15.80;99.90;;;;;;4381861;28;660651;-64
2023/07/20 03:51:04;;;;;;;11.30;5.10;;;15.70;99.90;;;;;;4408634;28;659599;-65
2023/07/20 03:53:51;;;;;;;11.97;5.30;;;15.70;99.90;;;;;;4385926;28;659800;-65
2023/07/20 03:56:39;;;;;;;9.80;4.90;;;15.60;99.90;;;;;;4402999;28;659486;-65
2023/07/20 03:59:26;;;;;;;10.73;5.10;;;15.60;99.90;;;;;;4386484;28;659107;-65
2023/07/20 04:02:14;;;;;;;11.13;5.00;;;15.60;99.90;;;;;;4405112;28;660674;-65
2023/07/20 04:05:01;;;;;;;9.47;4.97;;;15.60;99.90;;;;;;4390502;28;659430;-65
2023/07/20 04:07:49;;;;;;;11.67;5.30;;;15.70;99.90;;;;;;4412447;28;659015;-65
2023/07/20 04:10:36;;;;;;;12.35;5.13;;;15.60;99.90;;;;;;4384685;28;659402;-64
2023/07/20 04:13:23;;;;;;;11.87;5.10;;;15.70;99.90;;;;;;4411901;28;661009;-64
2023/07/20 04:16:10;;;;;;;9.05;4.82;;;15.70;99.90;;;;;;4387705;28;660070;-65
2023/07/20 04:18:59;;;;;;;15.00;5.37;;;15.70;99.90;;;;;;4404209;28;660134;-65
2023/07/20 04:21:46;;;;;;;10.63;4.80;;;15.80;99.90;;;;;;4391039;28;659621;-65
2023/07/20 04:24:33;;;;;;;7.93;4.97;;;15.80;99.90;;;;;;4409875;28;660246;-65
2023/07/20 04:27:20;;;;;;;6.93;4.70;;;15.70;99.90;;;;;;4394436;28;658487;-65
2023/07/20 04:30:10;;;;;;;9.20;4.63;;;15.70;99.90;;;;;;4404295;28;659503;-64
2023/07/20 04:32:57;;;;;;;9.90;4.47;;;15.80;99.90;;;;;;4392949;28;659622;-64
2023/07/20 04:35:50;;;;;;;10.83;4.80;;;15.80;99.90;;;;;;4409756;28;658232;-65
2023/07/20 04:38:37;;;;;;;10.23;4.70;;;15.90;99.90;;;;;;4362195;28;660863;-65
2023/07/20 04:41:26;;;;;;;9.63;4.57;;;15.80;99.90;;;;;;4404531;28;659625;-65
2023/07/20 04:44:14;;;;;;;11.40;4.63;;;15.70;99.90;;;;;;4413014;28;658960;-65
2023/07/20 04:47:02;;;;;;;9.47;4.23;;;15.70;99.90;;;;;;4397033;28;659708;-65
2023/07/20 04:49:49;;;;;;;10.77;4.93;;;15.70;99.90;;;;;;4408719;28;658078;-65
2023/07/20 04:52:38;;;;;;;5.90;3.90;;;15.70;99.90;;;;;;4384094;28;660403;-65
2023/07/20 04:55:25;;;;;;;10.93;4.37;;;15.60;99.90;;;;;;4393833;28;659367;-65
2023/07/20 04:58:12;;;;;;;16.97;4.53;;;15.70;99.90;;;;;;4407121;28;660459;-64
2023/07/20 05:00:59;;;;;;;7.83;4.47;;;15.70;99.90;;;;;;4407132;28;659377;-65
2023/07/20 05:03:47;;;;;;;13.40;5.00;;;15.70;99.90;;;;;;4388786;28;659851;-65
2023/07/20 05:06:34;;;;;;;10.23;4.40;;;15.80;99.90;;;;;;4408473;28;660068;-64
2023/07/20 05:09:22;;;;;;;13.83;4.50;;;15.90;99.90;;;;;;4383804;28;659800;-64
2023/07/20 05:12:11;;;;;;;9.50;4.67;;;16.00;99.90;;;;;;4402704;28;659786;-65
2023/07/20 05:14:59;;;;;;;12.37;4.50;;;16.10;99.90;;;;;;4410422;28;658567;-65
2023/07/20 05:17:48;;;;;;;13.03;4.73;;;16.20;99.90;;;;;;4387056;28;659312;-65
2023/07/20 05:20:36;;;;;;;14.85;4.90;;;16.30;99.90;;;;;;4385759;28;659860;-65
2023/07/20 05:23:23;;;;;;;12.57;4.77;;;16.40;99.90;;;;;;4409664;28;660562;-65
2023/07/20 05:26:12;;;;;;;8.30;3.90;;;16.40;99.90;;;;;;4384720;28;659831;-65
2023/07/20 05:28:59;;;;;;;10.20;4.50;;;16.40;99.90;;;;;;4400271;28;658778;-64
2023/07/20 05:31:46;;;;;;;13.67;4.37;;;16.40;99.90;;;;;;4385288;28;659460;-64
2023/07/20 05:34:33;;;;;;;8.57;4.30;;;16.40;99.90;;;;;;4403180;28;660228;-64
2023/07/20 05:37:21;;;;;;;8.53;4.23;;;16.50;99.90;;;;;;4395019;28;658592;-65
2023/07/20 05:40:11;;;;;;;8.67;3.83;;;16.50;99.90;;;;;;4411872;28;658762;-64
2023/07/20 05:43:00;;;;;;;6.20;3.47;;;16.60;99.90;;;;;;4384748;28;659446;-64
2023/07/20 05:45:48;;;;;;;10.03;3.93;;;16.60;99.90;;;;;;4388376;28;659588;-64
2023/07/20 05:48:35;;;;;;;8.10;4.20;;;16.60;99.90;;;;;;4386803;28;659880;-65
2023/07/20 05:51:23;;;;;;;8.93;4.17;;;16.70;99.90;;;;;;4410144;28;659776;-64
2023/07/20 05:54:10;;;;;;;7.50;4.30;;;16.80;99.90;;;;;;4403118;28;659304;-64
2023/07/20 05:56:57;;;;;;;8.03;3.67;;;16.80;99.90;;;;;;4411909;28;659580;-64
2023/07/20 05:59:46;;;;;;;7.53;3.73;;;16.70;99.90;;;;;;4409425;28;658529;-65
2023/07/20 06:02:33;;;;;;;8.97;4.30;;;16.70;99.90;;;;;;4382916;28;660641;-64
2023/07/20 06:05:21;;;;;;;7.97;4.20;;;16.50;99.90;;;;;;4386616;28;659368;-65
2023/07/20 06:08:08;;;;;;;13.07;4.45;;;16.60;99.90;;;;;;4409385;28;660021;-64
2023/07/20 06:10:55;;;;;;;13.67;4.57;;;16.60;99.90;;;;;;4382521;28;660330;-65
2023/07/20 06:13:43;;;;;;;8.77;4.40;;;16.80;99.90;;;;;;4408660;28;660802;-64
2023/07/20 06:16:32;;;;;;;7.73;4.53;;;16.90;99.90;;;;;;4391033;28;658673;-65
2023/07/20 06:19:19;;;;;;;8.57;4.20;;;17.10;99.90;;;;;;4403663;28;658603;-65
2023/07/20 06:22:06;;;;;;;9.83;4.37;;;17.20;99.90;;;;;;4388462;28;658698;-64
2023/07/20 06:24:53;;;;;;;11.50;4.60;;;17.60;99.90;;;;;;4409885;28;658509;-64
2023/07/20 06:27:41;;;;;;;7.67;4.53;;;18.00;99.90;;;;;;4383129;28;661618;-65
2023/07/20 06:30:28;;;;;;;8.40;4.20;;;18.30;99.90;;;;;;4409038;28;658715;-64
2023/07/20 06:33:17;;;;;;;9.57;4.63;;;18.30;99.90;;;;;;4389662;28;659340;-65
2023/07/20 06:36:05;;;;;;;9.97;4.90;;;17.70;99.90;;;;;;4407708;28;659067;-64
2023/07/20 06:38:52;;;;;;;12.80;5.37;;;17.40;99.90;;;;;;4385945;28;659383;-64
2023/07/20 06:41:39;;;;;;;8.83;5.30;;;17.20;99.90;;;;;;4412064;28;660173;-64
2023/07/20 06:44:26;;;;;;;10.43;5.23;;;17.30;99.90;;;;;;4384702;28;658803;-64
2023/07/20 06:47:13;;;;;;;10.07;5.87;;;17.50;99.90;;;;;;4407886;28;660455;-64
2023/07/20 06:50:02;;;;;;;10.70;5.53;;;17.70;99.90;;;;;;4385294;28;659780;-64
2023/07/20 06:52:49;;;;;;;14.73;5.57;;;18.00;99.90;;;;;;4408039;28;659472;-65
2023/07/20 06:55:36;;;;;;;10.67;5.77;;;18.20;99.90;;;;;;4386043;28;659521;-64
2023/07/20 06:58:24;;;;;;;9.27;4.60;;;18.00;99.90;;;;;;4403316;28;660539;-63
2023/07/20 07:01:11;;;;;;;10.43;5.03;;;18.20;99.90;;;;;;4383182;28;658860;-64
2023/07/20 07:03:58;;;;;;;10.17;5.00;;;17.80;99.90;;;;;;4407151;28;660591;-64
2023/07/20 07:06:47;;;;;;;6.47;4.07;;;17.90;99.90;;;;;;4389404;28;659749;-65
2023/07/20 07:09:35;;;;;;;6.40;4.07;;;18.10;99.90;;;;;;4396243;28;659589;-64
2023/07/20 07:12:22;;;;;;;13.10;4.20;;;18.30;99.90;;;;;;4403309;28;659881;-64
2023/07/20 07:15:11;;;;;;;9.33;3.80;;;18.70;99.90;;;;;;4409298;28;659980;-64
2023/07/20 07:17:59;;;;;;;16.47;4.63;;;19.10;99.90;;;;;;4380657;28;659878;-64
2023/07/20 07:20:51;;;;;;;7.60;3.10;;;19.10;99.90;;;;;;4389303;28;659569;-64
2023/07/20 07:23:40;;;;;;;5.70;3.50;;;19.10;99.90;;;;;;4380022;28;658964;-64
2023/07/20 07:26:27;;;;;;;7.00;3.37;;;19.40;99.90;;;;;;4387816;28;659635;-64
2023/07/20 07:29:15;;;;;;;5.80;3.20;;;19.90;99.90;;;;;;4407921;28;658633;-64
2023/07/20 07:32:02;;;;;;;7.77;3.47;;;20.10;99.90;;;;;;4414955;28;659561;-64
2023/07/20 07:34:50;;;;;;;7.30;3.27;;;19.80;99.90;;;;;;4395171;28;659314;-65
2023/07/20 07:37:37;;;;;;;7.77;2.90;;;19.90;99.90;;;;;;4412119;28;659693;-64
2023/07/20 07:40:26;;;;;;;6.33;3.07;;;19.70;99.90;;;;;;4413187;28;658996;-64
2023/07/20 07:43:13;;;;;;;7.63;3.47;;;19.50;99.90;;;;;;4381765;28;660276;-64
2023/07/20 07:46:01;;;;;;;4.90;2.47;;;19.60;99.90;;;;;;4396216;28;658688;-65
2023/07/20 07:48:48;;;;;;;5.63;2.77;;;19.50;99.90;;;;;;4415013;28;659101;-64
2023/07/20 07:51:35;;;;;;;4.67;2.90;;;18.80;99.90;;;;;;4389253;28;658680;-64
2023/07/20 07:54:22;;;;;;;6.63;2.90;;;18.40;99.90;;;;;;4403622;28;659898;-64
2023/07/20 07:57:13;;;;;;;5.20;3.00;;;18.60;99.90;;;;;;4412171;28;658602;-64
2023/07/20 08:00:01;;;;;;;5.60;3.20;;;18.60;99.90;;;;;;4391666;28;658592;-64
2023/07/20 08:02:48;;;;;;;7.77;3.10;;;19.20;99.90;;;;;;4416493;28;659209;-64
2023/07/20 08:05:36;;;;;;;7.63;3.10;;;19.50;99.90;;;;;;4384714;28;659006;-64
2023/07/20 08:08:23;;;;;;;3.87;2.80;;;19.80;99.90;;;;;;4411342;28;659147;-64
2023/07/20 08:11:10;;;;;;;7.80;3.10;;;19.60;99.90;;;;;;4392852;28;658571;-64
2023/07/20 08:13:59;;;;;;;6.47;2.90;;;19.50;99.90;;;;;;4416046;28;660786;-64
2023/07/20 08:16:47;;;;;;;7.87;2.87;;;19.30;99.90;;;;;;4386922;28;659337;-64
2023/07/20 08:19:34;;;;;;;4.57;2.80;;;19.50;99.90;;;;;;4409659;28;658714;-64
2023/07/20 08:22:22;;;;;;;3.63;2.43;;;19.90;99.90;;;;;;4392276;28;659620;-64
2023/07/20 08:25:09;;;;;;;7.63;2.67;;;20.00;99.90;;;;;;4404439;28;658687;-64
2023/07/20 08:27:56;;;;;;;5.00;2.40;;;20.20;99.90;;;;;;4390873;28;658617;-64
2023/07/20 08:30:46;;;;;;;5.40;2.30;;;20.50;99.90;;;;;;4413636;28;658717;-67
2023/07/20 08:33:34;;;;;;;4.40;2.60;;;20.40;99.90;;;;;;4381957;28;659436;-68
2023/07/20 08:36:21;;;;;;;3.53;2.10;;;20.10;99.90;;;;;;4392692;28;658523;-67
2023/07/20 08:39:08;;;;;;;3.37;2.20;;;20.30;99.90;;;;;;4412837;28;660460;-64
2023/07/20 08:41:56;;;;;;;4.90;2.33;;;20.10;99.90;;;;;;4394683;28;659345;-65
2023/07/20 08:44:44;;;;;;;5.10;2.60;;;20.30;99.90;;;;;;4416631;28;659770;-65
2023/07/20 08:47:32;;;;;;;4.53;2.57;;;20.30;99.90;;;;;;4395113;28;659786;-64
2023/07/20 08:50:19;;;;;;;6.97;2.50;;;19.90;99.90;;;;;;4408037;28;658455;-64
2023/07/20 08:53:07;;;;;;;5.03;2.27;;;19.50;99.90;;;;;;4389820;28;660250;-64
2023/07/20 08:55:54;;;;;;;5.03;1.98;;;19.80;99.90;;;;;;4418314;28;658231;-64
2023/07/20 08:58:41;;;;;;;5.43;2.10;;;19.80;99.90;;;;;;4397582;28;658672;-64
2023/07/20 09:01:29;;;;;;;3.63;2.20;;;19.70;99.90;;;;;;4404403;28;659435;-64
2023/07/20 09:04:17;;;;;;;3.33;2.00;;;19.70;99.90;;;;;;4390778;28;658535;-64
2023/07/20 09:07:05;;;;;;;5.07;1.93;;;19.60;99.90;;;;;;4405601;28;658940;-64
2023/07/20 09:09:52;;;;;;;4.83;2.00;;;20.00;99.90;;;;;;4387062;28;659659;-64
2023/07/20 09:12:40;;;;;;;3.70;1.90;;;20.60;99.90;;;;;;4410526;28;658999;-64
2023/07/20 09:15:27;;;;;;;3.83;1.80;;;20.30;99.90;;;;;;4392774;28;659280;-64
2023/07/20 09:18:24;;;;;;;4.13;1.90;;;20.40;99.90;;;;;;4407238;28;658685;-64
2023/07/20 09:21:13;;;;;;;4.10;2.17;;;20.10;99.90;;;;;;4364156;28;659260;-64
2023/07/20 09:24:00;;;;;;;2.43;1.70;;;20.10;99.90;;;;;;4397143;28;658404;-64
2023/07/20 09:26:49;;;;;;;2.23;1.90;;;20.00;99.90;;;;;;4409572;28;659345;-64
2023/07/20 09:29:44;;;;;;;4.13;2.00;;;20.30;99.90;;;;;;4385864;28;659975;-64
2023/07/20 09:32:31;;;;;;;5.37;1.70;;;20.70;99.90;;;;;;4365722;28;659121;-64
2023/07/20 09:35:19;;;;;;;4.23;1.80;;;20.60;99.90;;;;;;4404552;28;659031;-64
2023/07/20 09:38:08;;;;;;;3.47;1.95;;;20.50;99.90;;;;;;4383195;28;658288;-64
2023/07/20 09:40:56;;;;;;;2.87;1.87;;;20.30;99.90;;;;;;4388795;28;659121;-64
2023/07/20 09:43:43;;;;;;;3.00;2.20;;;20.30;99.90;;;;;;4412853;28;660181;-64
2023/07/20 09:46:42;;;;;;;3.13;2.60;;;20.40;99.90;;;;;;4389749;28;658819;-64
2023/07/20 09:49:29;;;;;;;3.43;2.57;;;20.60;99.90;;;;;;4383502;28;659163;-64
2023/07/20 09:52:16;;;;;;;3.10;2.60;;;20.50;99.90;;;;;;4382639;28;658821;-64
2023/07/20 09:55:06;;;;;;;6.63;3.20;;;21.00;99.90;;;;;;4400906;28;658525;-64
2023/07/20 09:57:55;;;;;;;4.43;3.10;;;21.20;99.90;;;;;;4391705;28;658306;-64
2023/07/20 10:00:44;;;;;;;4.83;3.43;;;21.20;99.90;;;;;;4385616;28;659211;-64
2023/07/20 10:03:32;;;;;;;5.87;3.10;;;21.00;99.90;;;;;;4389839;28;658701;-64
2023/07/20 10:06:25;;;;;;;6.73;3.40;;;20.50;99.90;;;;;;4400021;28;658258;-64
2023/07/20 10:09:12;;;;;;;8.23;3.67;;;20.00;99.90;;;;;;4356986;28;659557;-64
2023/07/20 10:12:02;;;;;;;7.37;3.83;;;20.60;99.90;;;;;;4405727;28;658589;-64
2023/07/20 10:14:53;;;;;;;5.25;3.50;;;21.10;99.90;;;;;;4405994;28;658930;-64
2023/07/20 10:17:49;;;;;;;7.83;4.20;;;21.80;99.90;;;;;;4363936;28;658818;-64
2023/07/20 10:20:37;;;;;;;9.77;4.50;;;21.80;99.90;;;;;;4361905;28;659201;-65
2023/07/20 10:23:24;;;;;;;6.23;3.67;;;22.20;99.90;;;;;;4399993;28;658929;-65
2023/07/20 10:26:12;;;;;;;8.93;4.67;;;22.30;99.90;;;;;;4384312;28;658939;-65
2023/07/20 10:29:00;;;;;;;8.80;4.57;;;21.10;99.90;;;;;;4408459;28;659276;-65
2023/07/20 10:31:47;;;;;;;7.37;4.40;;;21.00;99.90;;;;;;4386284;28;659898;-64
2023/07/20 10:34:34;;;;;;;7.43;4.40;;;21.10;99.90;;;;;;4398741;28;660477;-64
2023/07/20 10:37:48;;;;;;;7.77;4.03;;;21.60;99.90;;;;;;4388576;28;660150;-64
2023/07/20 10:40:38;;;;;;;5.93;4.07;;;21.80;99.90;;;;;;4371460;28;660094;-65
2023/07/20 10:43:26;;;;;;;9.40;4.43;;;22.20;99.90;;;;;;4393415;28;658348;-64
2023/07/20 10:46:14;;;;;;;6.60;4.77;;;22.00;99.90;;;;;;4409364;28;659099;-64
2023/07/20 10:49:02;;;;;;;8.90;5.00;;;21.90;99.90;;;;;;4386392;28;658820;-64
2023/07/20 10:51:50;;;;;;;7.57;4.90;;;22.00;99.90;;;;;;4409936;28;658434;-64
2023/07/20 10:54:49;;;;;;;10.17;4.70;;;21.50;99.90;;;;;;4386139;28;659219;-64
2023/07/20 10:57:37;;;;;;;11.37;5.23;;;21.60;99.90;;;;;;4358474;28;660674;-64
2023/07/20 11:00:24;;;;;;;10.13;4.83;;;21.90;99.90;;;;;;4407678;28;660209;-64
2023/07/20 11:03:14;;;;;;;7.70;5.03;;;22.90;99.90;;;;;;4386464;28;659309;-64
2023/07/20 11:06:07;;;;;;;6.53;4.97;;;23.30;99.90;;;;;;4390874;28;659018;-64
2023/07/20 11:08:56;;;;;;;6.13;4.80;;;23.20;99.90;;;;;;4379520;28;659180;-64
2023/07/20 11:11:44;;;;;;;7.43;5.00;;;22.70;99.90;;;;;;4385068;28;659594;-64
2023/07/20 11:14:34;;;;;;;8.90;5.53;;;22.90;99.90;;;;;;4384466;28;658457;-64
2023/07/20 11:17:22;;;;;;;7.93;5.20;;;22.90;99.90;;;;;;4385833;28;658762;-64
2023/07/20 11:20:12;;;;;;;10.00;5.70;;;23.20;99.90;;;;;;4409547;28;659837;-64
2023/07/20 11:22:59;;;;;;;7.27;5.10;;;23.50;99.90;;;;;;4383852;28;659676;-64
2023/07/20 11:25:46;;;;;;;11.52;5.43;;;23.90;99.90;;;;;;4391666;28;658338;-65
2023/07/20 11:28:35;;;;;;;6.27;4.93;;;24.00;99.90;;;;;;4408554;28;660109;-64
2023/07/20 11:31:22;;;;;;;7.33;4.93;;;23.80;99.90;;;;;;4382459;28;660112;-65
2023/07/20 11:34:11;;;;;;;6.30;4.63;;;23.40;99.90;;;;;;4408674;28;658250;-65
2023/07/20 11:37:00;;;;;;;5.73;4.23;;;23.60;99.90;;;;;;4384298;28;659109;-64
2023/07/20 11:39:48;;;;;;;8.47;4.37;;;23.20;99.90;;;;;;4388787;28;659618;-64
2023/07/20 11:42:35;;;;;;;4.30;3.63;;;23.80;99.90;;;;;;4397629;28;658506;-64
2023/07/20 11:45:22;;;;;;;9.80;3.67;;;24.70;99.90;;;;;;4414551;28;658989;-65
2023/07/20 11:48:16;;;;;;;4.18;3.10;;;24.80;99.90;;;;;;4403293;28;658690;-64
2023/07/20 11:51:03;;;;;;;6.38;3.75;;;25.10;97.90;;;;;;4389515;28;659442;-64
2023/07/20 11:53:52;;;;;;;5.70;3.65;;;24.70;93.80;;;;;;4388381;28;658633;-65
2023/07/20 11:56:42;;;;;;;4.93;3.50;;;23.80;94.80;;;;;;4403208;28;659467;-64
2023/07/20 11:59:31;;;;;;;6.57;3.53;;;22.80;99.90;;;;;;4376802;28;658712;-64
2023/07/20 12:02:18;;;;;;;7.90;3.93;;;23.40;99.90;;;;;;4412010;28;659450;-64
2023/07/20 12:05:06;;;;;;;8.33;4.20;;;23.50;99.90;;;;;;4384486;28;658467;-64
2023/07/20 12:07:53;;;;;;;8.63;4.50;;;23.80;99.60;;;;;;4403913;28;659530;-64
2023/07/20 12:10:43;;;;;;;6.93;3.23;;;24.10;99.90;;;;;;4385924;28;659036;-64
2023/07/20 12:13:41;;;;;;;4.25;3.22;;;24.30;96.30;;;;;;4382865;28;659422;-65
2023/07/20 12:16:29;;;;;;;4.03;3.07;;;23.70;97.80;;;;;;4376711;28;659444;-65
2023/07/20 12:19:16;;;;;;;6.67;3.17;;;23.30;99.10;;;;;;4388983;28;658750;-64
2023/07/20 12:22:04;;;;;;;5.30;2.90;;;23.30;93.40;;;;;;4406118;28;659728;-65
2023/07/20 12:24:53;;;;;;;6.93;2.93;;;23.90;96.00;;;;;;4388484;28;658581;-64
2023/07/20 12:27:42;;;;;;;7.63;3.00;;;23.80;95.10;;;;;;4393233;28;658786;-64
2023/07/20 12:30:29;;;;;;;4.60;2.10;;;23.80;94.00;;;;;;4411382;28;659944;-65
2023/07/20 12:33:17;;;;;;;5.40;2.70;;;24.00;94.10;;;;;;4391980;28;659123;-65
2023/07/20 12:36:05;;;;;;;13.00;3.03;;;24.30;93.40;;;;;;4404528;28;659117;-64
2023/07/20 12:38:52;;;;;;;4.57;2.75;;;23.70;88.50;;;;;;4379596;28;659763;-65
2023/07/20 12:41:39;;;;;;;3.00;2.67;;;23.50;87.10;;;;;;4404224;28;658518;-65
2023/07/20 12:44:28;;;;;;;5.43;2.60;;;23.70;93.40;;;;;;4393440;28;659889;-65
2023/07/20 12:47:15;;;;;;;4.07;2.33;;;24.10;91.40;;;;;;4392952;28;659162;-65
2023/07/20 12:50:04;;;;;;;4.47;2.50;;;24.60;92.60;;;;;;4410687;28;659681;-65
2023/07/20 12:52:51;;;;;;;4.60;2.42;;;24.30;88.00;;;;;;4393640;28;659808;-64
2023/07/20 12:55:38;;;;;;;7.38;2.45;;;24.40;86.70;;;;;;4407264;28;659609;-65
2023/07/20 12:58:26;;;;;;;4.88;2.70;;;23.60;85.50;;;;;;4391398;28;658532;-64
2023/07/20 13:01:15;;;;;;;3.90;2.33;;;23.40;88.50;;;;;;4410593;28;659688;-65
2023/07/20 13:04:03;;;;;;;4.50;2.50;;;22.90;92.10;;;;;;4386245;28;659584;-64
2023/07/20 13:06:50;;;;;;;5.10;2.53;;;23.00;90.70;;;;;;4391305;28;659149;-65
2023/07/20 13:09:37;;;;;;;9.23;2.20;;;23.80;94.60;;;;;;4401904;28;659842;-65
2023/07/20 13:12:25;;;;;;;3.23;2.20;;;24.30;87.00;;;;;;4406438;28;658874;-65
2023/07/20 13:15:12;;;;;;;7.10;2.42;;;24.30;81.80;;;;;;4415739;28;658614;-65
2023/07/20 13:18:01;;;;;;;3.30;2.05;;;24.60;81.80;;;;;;4415339;28;658669;-65
2023/07/20 13:20:48;;;;;;;4.55;2.10;;;24.50;82.10;;;;;;4385578;28;660104;-65
2023/07/20 13:23:35;;;;;;;4.35;2.20;;;24.30;79.30;;;;;;4387960;28;658286;-64
2023/07/20 13:26:22;;;;;;;4.28;2.15;;;24.30;79.90;;;;;;4404104;28;660111;-65
2023/07/20 13:29:09;;;;;;;4.07;2.03;;;23.60;83.50;;;;;;4411097;28;658434;-64
2023/07/20 13:31:57;;;;;;;2.53;2.00;;;23.20;81.60;;;;;;4379422;28;659889;-65
2023/07/20 13:34:45;;;;;;;7.88;2.10;;;23.40;86.00;;;;;;4409960;28;659256;-65
2023/07/20 13:37:33;;;;;;;1.83;1.70;;;23.70;83.10;;;;;;4386374;28;659961;-65
2023/07/20 13:40:22;;;;;;;5.87;2.20;;;23.80;76.80;;;;;;4392672;28;659051;-65
2023/07/20 13:43:09;;;;;;;3.00;1.53;;;23.80;78.10;;;;;;4397848;28;659530;-65
2023/07/20 13:45:56;;;;;;;2.73;1.70;;;23.50;76.80;;;;;;4391178;28;658732;-65
2023/07/20 13:48:44;;;;;;;1.93;1.73;;;23.60;78.90;;;;;;4409446;28;660367;-65
2023/07/20 13:51:32;;;;;;;4.23;2.03;;;23.60;78.40;;;;;;4392709;28;658711;-64
2023/07/20 13:54:19;;;;;;;6.00;1.90;;;23.80;76.90;;;;;;4396954;28;659062;-65
2023/07/20 13:57:07;;;;;;;3.60;1.77;;;24.50;79.30;;;;;;4392032;28;659910;-65
2023/07/20 13:59:54;;;;;;;3.17;2.10;;;24.50;77.00;;;;;;4407976;28;658805;-64
2023/07/20 14:02:41;;;;;;;5.75;2.00;;;24.20;71.70;;;;;;4389614;28;658809;-64
2023/07/20 14:05:29;;;;;;;5.65;2.05;;;24.10;75.90;;;;;;4408476;28;658419;-65
2023/07/20 14:08:17;;;;;;;3.37;1.83;;;24.80;74.70;;;;;;4390899;28;660770;-65
2023/07/20 14:11:04;;;;;;;5.03;1.67;;;25.80;72.30;;;;;;4404908;28;658566;-65
2023/07/20 14:13:52;;;;;;;7.05;1.80;;;26.10;74.90;;;;;;4387105;28;658817;-65
2023/07/20 14:16:40;;;;;;;5.40;1.70;;;26.60;78.40;;;;;;4405568;28;658567;-65
2023/07/20 14:19:27;;;;;;;1.90;1.50;;;26.30;77.50;;;;;;4413801;28;659919;-65